N80FC KPDX-KLAX
Flight info
| Callsign | N80FC |
|---|---|
| Flight time | 1h 48m |
| Altitude | 45000 |
| Route | HRMNS6 HYJOE JAGWA BURGL IRNMN2 |
| Aircraft | C700/M-SBDGHM1RWXY/LB2 |
Departure
| Time | 2026-04-25 00:14 |
|---|---|
| Airport | Portland International Airport (KPDX) |
Arrival
| Time | 2026-04-25 02:03 |
|---|---|
| Airport | Los Angeles International Airport (KLAX) |
| Time | Latitude | Longitude | Altitude | Speed | Heading |
|---|---|---|---|---|---|
| 2026-04-25 00:05 | 45.58484 | -122.57710 | 29 ft | 0 kts | 118° |
| 2026-04-25 00:11 | 45.58486 | -122.57703 | 29 ft | 1 kts | 54° |
| 2026-04-25 00:11 | 45.58499 | -122.57702 | 29 ft | 5 kts | 358° |
| 2026-04-25 00:12 | 45.58549 | -122.57696 | 30 ft | 0 kts | 14° |
| 2026-04-25 00:12 | 45.58553 | -122.57695 | 30 ft | 3 kts | 14° |
| 2026-04-25 00:12 | 45.58594 | -122.57650 | 29 ft | 12 kts | 71° |
| 2026-04-25 00:12 | 45.58550 | -122.57498 | 30 ft | 21 kts | 120° |
| 2026-04-25 00:13 | 45.58472 | -122.57299 | 24 ft | 24 kts | 118° |
| 2026-04-25 00:13 | 45.58401 | -122.57115 | 26 ft | 17 kts | 118° |
| 2026-04-25 00:13 | 45.58346 | -122.56962 | 28 ft | 17 kts | 117° |
| 2026-04-25 00:13 | 45.58283 | -122.56805 | 28 ft | 20 kts | 111° |
| 2026-04-25 00:14 | 45.58335 | -122.56696 | 26 ft | 17 kts | 358° |
| 2026-04-25 00:14 | 45.58440 | -122.56891 | 24 ft | 53 kts | 299° |
| 2026-04-25 00:14 | 45.58761 | -122.57727 | 63 ft | 134 kts | 298° |
| 2026-04-25 00:14 | 45.59272 | -122.59033 | 836 ft | 164 kts | 299° |
| 2026-04-25 00:15 | 45.59827 | -122.60579 | 1910 ft | 186 kts | 299° |
| 2026-04-25 00:15 | 45.60389 | -122.62320 | 3152 ft | 203 kts | 297° |
| 2026-04-25 00:15 | 45.61006 | -122.64243 | 4216 ft | 229 kts | 297° |
| 2026-04-25 00:15 | 45.61623 | -122.66488 | 5303 ft | 255 kts | 291° |
| 2026-04-25 00:16 | 45.62382 | -122.68781 | 6767 ft | 257 kts | 303° |
| 2026-04-25 00:16 | 45.63303 | -122.71023 | 8159 ft | 266 kts | 303° |
| 2026-04-25 00:16 | 45.64221 | -122.73334 | 9753 ft | 269 kts | 303° |
| 2026-04-25 00:16 | 45.65169 | -122.75680 | 11288 ft | 273 kts | 304° |
| 2026-04-25 00:17 | 45.66122 | -122.78030 | 12918 ft | 275 kts | 304° |
| 2026-04-25 00:17 | 45.66792 | -122.80654 | 14372 ft | 290 kts | 288° |
| 2026-04-25 00:17 | 45.66892 | -122.83691 | 14995 ft | 324 kts | 269° |
| 2026-04-25 00:17 | 45.66170 | -122.86764 | 15001 ft | 328 kts | 248° |
| 2026-04-25 00:18 | 45.64769 | -122.89288 | 14997 ft | 333 kts | 227° |
| 2026-04-25 00:18 | 45.62772 | -122.91015 | 14998 ft | 342 kts | 204° |
| 2026-04-25 00:18 | 45.60321 | -122.91617 | 15000 ft | 378 kts | 179° |
| 2026-04-25 00:18 | 45.57637 | -122.90897 | 15030 ft | 410 kts | 164° |
| 2026-04-25 00:19 | 45.54826 | -122.89631 | 15019 ft | 429 kts | 157° |
| 2026-04-25 00:19 | 45.52172 | -122.87708 | 15016 ft | 428 kts | 146° |
| 2026-04-25 00:19 | 45.49638 | -122.85440 | 15012 ft | 430 kts | 145° |
| 2026-04-25 00:19 | 45.47095 | -122.83209 | 15399 ft | 423 kts | 147° |
| 2026-04-25 00:20 | 45.44615 | -122.81140 | 17309 ft | 409 kts | 148° |
| 2026-04-25 00:20 | 45.42129 | -122.79033 | 18420 ft | 422 kts | 147° |
| 2026-04-25 00:20 | 45.39606 | -122.76842 | 19472 ft | 427 kts | 148° |
| 2026-04-25 00:20 | 45.37078 | -122.74668 | 20410 ft | 433 kts | 148° |
| 2026-04-25 00:21 | 45.34471 | -122.72460 | 21325 ft | 438 kts | 149° |
| 2026-04-25 00:21 | 45.31836 | -122.70226 | 22225 ft | 444 kts | 149° |
| 2026-04-25 00:21 | 45.29176 | -122.67954 | 23110 ft | 449 kts | 149° |
| 2026-04-25 00:21 | 45.26480 | -122.65655 | 23919 ft | 454 kts | 150° |
| 2026-04-25 00:22 | 45.23751 | -122.63341 | 24611 ft | 460 kts | 150° |
| 2026-04-25 00:22 | 45.20983 | -122.60997 | 25295 ft | 466 kts | 150° |
| 2026-04-25 00:22 | 45.18190 | -122.58628 | 25958 ft | 471 kts | 150° |
| 2026-04-25 00:22 | 45.15350 | -122.56222 | 26619 ft | 477 kts | 150° |
| 2026-04-25 00:23 | 45.12486 | -122.53801 | 27269 ft | 482 kts | 150° |
| 2026-04-25 00:23 | 45.09584 | -122.51352 | 27912 ft | 487 kts | 150° |
| 2026-04-25 00:23 | 45.06651 | -122.48878 | 28545 ft | 493 kts | 150° |
| 2026-04-25 00:23 | 45.03691 | -122.46382 | 29155 ft | 498 kts | 150° |
| 2026-04-25 00:24 | 45.00691 | -122.43860 | 29773 ft | 504 kts | 150° |
| 2026-04-25 00:24 | 44.97690 | -122.41339 | 30315 ft | 509 kts | 151° |
| 2026-04-25 00:24 | 44.94550 | -122.38988 | 30778 ft | 512 kts | 158° |
| 2026-04-25 00:24 | 44.91207 | -122.37280 | 31448 ft | 509 kts | 164° |
| 2026-04-25 00:25 | 44.87849 | -122.35719 | 32116 ft | 509 kts | 164° |
| 2026-04-25 00:25 | 44.84485 | -122.34145 | 32736 ft | 509 kts | 164° |
| 2026-04-25 00:25 | 44.81128 | -122.32576 | 33382 ft | 508 kts | 164° |
| 2026-04-25 00:25 | 44.77772 | -122.31016 | 34015 ft | 508 kts | 165° |
| 2026-04-25 00:26 | 44.74415 | -122.29459 | 34495 ft | 507 kts | 164° |
| 2026-04-25 00:26 | 44.71075 | -122.27908 | 35201 ft | 501 kts | 165° |
| 2026-04-25 00:26 | 44.67766 | -122.26372 | 35725 ft | 500 kts | 164° |
| 2026-04-25 00:26 | 44.64474 | -122.24848 | 36335 ft | 495 kts | 164° |
| 2026-04-25 00:27 | 44.61212 | -122.23338 | 36957 ft | 492 kts | 164° |
| 2026-04-25 00:27 | 44.58008 | -122.21856 | 37463 ft | 490 kts | 164° |
| 2026-04-25 00:27 | 44.54780 | -122.20368 | 37964 ft | 488 kts | 164° |
| 2026-04-25 00:27 | 44.51555 | -122.18883 | 38416 ft | 486 kts | 164° |
| 2026-04-25 00:28 | 44.48350 | -122.17406 | 38876 ft | 483 kts | 164° |
| 2026-04-25 00:28 | 44.45155 | -122.15935 | 39159 ft | 483 kts | 164° |
| 2026-04-25 00:28 | 44.41960 | -122.14469 | 39437 ft | 483 kts | 164° |
| 2026-04-25 00:28 | 44.38771 | -122.13005 | 39734 ft | 482 kts | 164° |
| 2026-04-25 00:29 | 44.35582 | -122.11543 | 40006 ft | 482 kts | 164° |
| 2026-04-25 00:29 | 44.32387 | -122.10080 | 40252 ft | 482 kts | 164° |
| 2026-04-25 00:29 | 44.29235 | -122.08639 | 40528 ft | 481 kts | 164° |
| 2026-04-25 00:29 | 44.26053 | -122.07186 | 40771 ft | 481 kts | 164° |
| 2026-04-25 00:30 | 44.22869 | -122.05734 | 40994 ft | 481 kts | 164° |
| 2026-04-25 00:30 | 44.19685 | -122.04282 | 41245 ft | 481 kts | 164° |
| 2026-04-25 00:30 | 44.16501 | -122.02832 | 41492 ft | 481 kts | 164° |
| 2026-04-25 00:30 | 44.13316 | -122.01385 | 41742 ft | 481 kts | 164° |
| 2026-04-25 00:31 | 44.10133 | -121.99940 | 41962 ft | 480 kts | 164° |
| 2026-04-25 00:31 | 44.06955 | -121.98497 | 42242 ft | 479 kts | 164° |
| 2026-04-25 00:31 | 44.03784 | -121.97060 | 42465 ft | 479 kts | 164° |
| 2026-04-25 00:31 | 44.00610 | -121.95623 | 42682 ft | 479 kts | 164° |
| 2026-04-25 00:32 | 43.97443 | -121.94192 | 42908 ft | 479 kts | 164° |
| 2026-04-25 00:32 | 43.94274 | -121.92760 | 43125 ft | 479 kts | 164° |
| 2026-04-25 00:32 | 43.91109 | -121.91332 | 43346 ft | 478 kts | 164° |
| 2026-04-25 00:32 | 43.87941 | -121.89905 | 43533 ft | 478 kts | 164° |
| 2026-04-25 00:33 | 43.84746 | -121.88676 | 43714 ft | 476 kts | 172° |
| 2026-04-25 00:33 | 43.81482 | -121.87977 | 43930 ft | 474 kts | 174° |
| 2026-04-25 00:33 | 43.78218 | -121.87295 | 44110 ft | 475 kts | 174° |
| 2026-04-25 00:33 | 43.74994 | -121.86601 | 44287 ft | 475 kts | 174° |
| 2026-04-25 00:34 | 43.71725 | -121.85905 | 44469 ft | 474 kts | 174° |
| 2026-04-25 00:34 | 43.68455 | -121.85222 | 44640 ft | 474 kts | 174° |
| 2026-04-25 00:34 | 43.65188 | -121.84539 | 44791 ft | 474 kts | 174° |
| 2026-04-25 00:34 | 43.61927 | -121.83850 | 44915 ft | 474 kts | 174° |
| 2026-04-25 00:35 | 43.55364 | -121.82471 | 44944 ft | 480 kts | 174° |
| 2026-04-25 00:35 | 43.48703 | -121.81076 | 44952 ft | 486 kts | 174° |
| 2026-04-25 00:36 | 43.42013 | -121.79676 | 44943 ft | 492 kts | 174° |
| 2026-04-25 00:36 | 43.35209 | -121.78257 | 44928 ft | 495 kts | 174° |
| 2026-04-25 00:37 | 43.28437 | -121.76846 | 44926 ft | 489 kts | 174° |
| 2026-04-25 00:37 | 43.21733 | -121.75455 | 44899 ft | 487 kts | 174° |
| 2026-04-25 00:38 | 43.15011 | -121.74063 | 44929 ft | 490 kts | 174° |
| 2026-04-25 00:38 | 43.08244 | -121.72663 | 44931 ft | 492 kts | 174° |
| 2026-04-25 00:39 | 43.01530 | -121.71278 | 44922 ft | 490 kts | 174° |
| 2026-04-25 00:39 | 42.94780 | -121.69889 | 44914 ft | 489 kts | 174° |
| 2026-04-25 00:40 | 42.88064 | -121.68509 | 44905 ft | 487 kts | 174° |
| 2026-04-25 00:40 | 42.81370 | -121.67137 | 44898 ft | 485 kts | 174° |
| 2026-04-25 00:41 | 42.74698 | -121.65773 | 44914 ft | 483 kts | 174° |
| 2026-04-25 00:41 | 42.68026 | -121.64413 | 44908 ft | 486 kts | 174° |
| 2026-04-25 00:42 | 42.61371 | -121.63057 | 44920 ft | 488 kts | 174° |
| 2026-04-25 00:42 | 42.54637 | -121.61690 | 44908 ft | 489 kts | 174° |
| 2026-04-25 00:43 | 42.47929 | -121.60328 | 44907 ft | 486 kts | 174° |
| 2026-04-25 00:43 | 42.41262 | -121.58981 | 44891 ft | 482 kts | 174° |
| 2026-04-25 00:44 | 42.34602 | -121.57637 | 44903 ft | 486 kts | 174° |
| 2026-04-25 00:44 | 42.27891 | -121.56286 | 44911 ft | 490 kts | 174° |
| 2026-04-25 00:45 | 42.21157 | -121.54931 | 44907 ft | 488 kts | 174° |
| 2026-04-25 00:45 | 42.14447 | -121.53586 | 44907 ft | 486 kts | 174° |
| 2026-04-25 00:46 | 42.07773 | -121.52251 | 44899 ft | 484 kts | 174° |
| 2026-04-25 00:47 | 41.97833 | -121.50268 | 44894 ft | 484 kts | 175° |
| 2026-04-25 00:47 | 41.91140 | -121.48935 | 44898 ft | 488 kts | 174° |
| 2026-04-25 00:48 | 41.84408 | -121.47598 | 44903 ft | 488 kts | 174° |
| 2026-04-25 00:48 | 41.77705 | -121.46269 | 44890 ft | 486 kts | 175° |
| 2026-04-25 00:49 | 41.72151 | -121.45170 | 44887 ft | 484 kts | 175° |
| 2026-04-25 00:49 | 41.64411 | -121.43642 | 44886 ft | 482 kts | 175° |
| 2026-04-25 00:50 | 41.58839 | -121.42545 | 44896 ft | 485 kts | 175° |
| 2026-04-25 00:50 | 41.52142 | -121.41229 | 44902 ft | 488 kts | 175° |
| 2026-04-25 00:51 | 41.45411 | -121.39907 | 44910 ft | 488 kts | 175° |
| 2026-04-25 00:51 | 41.38702 | -121.38593 | 44893 ft | 486 kts | 175° |
| 2026-04-25 00:52 | 41.32074 | -121.37298 | 44888 ft | 483 kts | 175° |
| 2026-04-25 00:52 | 41.25433 | -121.36004 | 44878 ft | 483 kts | 175° |
| 2026-04-25 00:53 | 41.18758 | -121.34706 | 44895 ft | 487 kts | 175° |
| 2026-04-25 00:53 | 41.12019 | -121.33396 | 44900 ft | 489 kts | 175° |
| 2026-04-25 00:54 | 41.05311 | -121.32095 | 44888 ft | 485 kts | 175° |
| 2026-04-25 00:54 | 40.98652 | -121.30808 | 44885 ft | 482 kts | 175° |
| 2026-04-25 00:55 | 40.92002 | -121.29526 | 44891 ft | 484 kts | 175° |
| 2026-04-25 00:55 | 40.85324 | -121.28239 | 44903 ft | 486 kts | 175° |
| 2026-04-25 00:56 | 40.78618 | -121.26950 | 44911 ft | 488 kts | 175° |
| 2026-04-25 00:56 | 40.71948 | -121.25670 | 44915 ft | 486 kts | 175° |
| 2026-04-25 00:57 | 40.65270 | -121.24392 | 44916 ft | 484 kts | 176° |
| 2026-04-25 00:57 | 40.58618 | -121.23121 | 44915 ft | 481 kts | 176° |
| 2026-04-25 00:58 | 40.51993 | -121.21859 | 44922 ft | 481 kts | 176° |
| 2026-04-25 00:58 | 40.45350 | -121.20594 | 44933 ft | 483 kts | 176° |
| 2026-04-25 00:59 | 40.38683 | -121.19328 | 44939 ft | 485 kts | 176° |
| 2026-04-25 00:59 | 40.32003 | -121.18062 | 44940 ft | 485 kts | 176° |
| 2026-04-25 01:00 | 40.25329 | -121.16799 | 44937 ft | 484 kts | 176° |
| 2026-04-25 01:00 | 40.18698 | -121.15548 | 44935 ft | 483 kts | 176° |
| 2026-04-25 01:01 | 40.12052 | -121.14295 | 44932 ft | 482 kts | 176° |
| 2026-04-25 01:01 | 40.05425 | -121.13050 | 44933 ft | 481 kts | 176° |
| 2026-04-25 01:02 | 39.98816 | -121.11809 | 44919 ft | 479 kts | 176° |
| 2026-04-25 01:02 | 39.92221 | -121.10575 | 44930 ft | 478 kts | 176° |
| 2026-04-25 01:03 | 39.85677 | -121.09352 | 44937 ft | 478 kts | 176° |
| 2026-04-25 01:03 | 39.79095 | -121.08122 | 44946 ft | 477 kts | 177° |
| 2026-04-25 01:04 | 39.72525 | -121.06901 | 44943 ft | 478 kts | 177° |
| 2026-04-25 01:04 | 39.65932 | -121.05675 | 44947 ft | 479 kts | 177° |
| 2026-04-25 01:05 | 39.59333 | -121.04451 | 44950 ft | 479 kts | 177° |
| 2026-04-25 01:05 | 39.52732 | -121.03231 | 44952 ft | 479 kts | 177° |
| 2026-04-25 01:06 | 39.46114 | -121.02005 | 44946 ft | 480 kts | 177° |
| 2026-04-25 01:06 | 39.39493 | -121.00786 | 44937 ft | 481 kts | 177° |
| 2026-04-25 01:07 | 39.32869 | -120.99565 | 44961 ft | 481 kts | 177° |
| 2026-04-25 01:07 | 39.26248 | -120.98350 | 44963 ft | 480 kts | 177° |
| 2026-04-25 01:08 | 39.19673 | -120.97143 | 44953 ft | 479 kts | 177° |
| 2026-04-25 01:08 | 39.13076 | -120.95936 | 44957 ft | 478 kts | 177° |
| 2026-04-25 01:09 | 39.06496 | -120.94734 | 44921 ft | 477 kts | 177° |
| 2026-04-25 01:09 | 38.99933 | -120.93538 | 44931 ft | 476 kts | 177° |
| 2026-04-25 01:10 | 38.93361 | -120.92342 | 44947 ft | 478 kts | 177° |
| 2026-04-25 01:10 | 38.86754 | -120.91142 | 44950 ft | 480 kts | 177° |
| 2026-04-25 01:11 | 38.80141 | -120.89943 | 44961 ft | 480 kts | 177° |
| 2026-04-25 01:11 | 38.73542 | -120.88748 | 44964 ft | 479 kts | 178° |
| 2026-04-25 01:12 | 38.66949 | -120.87557 | 44926 ft | 477 kts | 178° |
| 2026-04-25 01:12 | 38.60379 | -120.86373 | 44931 ft | 476 kts | 178° |
| 2026-04-25 01:13 | 38.53864 | -120.85201 | 44937 ft | 475 kts | 178° |
| 2026-04-25 01:13 | 38.47322 | -120.84026 | 44947 ft | 474 kts | 178° |
| 2026-04-25 01:14 | 38.40797 | -120.82855 | 44944 ft | 474 kts | 178° |
| 2026-04-25 01:14 | 38.34244 | -120.81684 | 44948 ft | 477 kts | 178° |
| 2026-04-25 01:15 | 38.27652 | -120.80505 | 44952 ft | 478 kts | 178° |
| 2026-04-25 01:15 | 38.21049 | -120.79328 | 44933 ft | 479 kts | 178° |
| 2026-04-25 01:16 | 38.14459 | -120.78153 | 44935 ft | 477 kts | 178° |
| 2026-04-25 01:16 | 38.07900 | -120.76989 | 44926 ft | 475 kts | 178° |
| 2026-04-25 01:17 | 38.01369 | -120.75830 | 44917 ft | 472 kts | 178° |
| 2026-04-25 01:17 | 37.94876 | -120.74683 | 44898 ft | 474 kts | 178° |
| 2026-04-25 01:18 | 37.88322 | -120.73524 | 44902 ft | 476 kts | 178° |
| 2026-04-25 01:18 | 37.81746 | -120.72364 | 44901 ft | 478 kts | 178° |
| 2026-04-25 01:19 | 37.75167 | -120.71204 | 44898 ft | 476 kts | 178° |
| 2026-04-25 01:19 | 37.68620 | -120.70053 | 44892 ft | 473 kts | 178° |
| 2026-04-25 01:20 | 37.62163 | -120.68921 | 44888 ft | 470 kts | 178° |
| 2026-04-25 01:20 | 37.55685 | -120.67788 | 44886 ft | 471 kts | 178° |
| 2026-04-25 01:21 | 37.49163 | -120.66647 | 44894 ft | 473 kts | 178° |
| 2026-04-25 01:21 | 37.42614 | -120.65504 | 44897 ft | 476 kts | 178° |
| 2026-04-25 01:22 | 37.36060 | -120.64361 | 44904 ft | 474 kts | 178° |
| 2026-04-25 01:22 | 37.29571 | -120.62703 | 44889 ft | 478 kts | 172° |
| 2026-04-25 01:23 | 37.23194 | -120.60632 | 44896 ft | 475 kts | 172° |
| 2026-04-25 01:23 | 37.16781 | -120.58552 | 44899 ft | 477 kts | 172° |
| 2026-04-25 01:24 | 37.10335 | -120.56458 | 44901 ft | 479 kts | 172° |
| 2026-04-25 01:24 | 37.03860 | -120.54365 | 44909 ft | 481 kts | 172° |
| 2026-04-25 01:25 | 36.97387 | -120.52269 | 44911 ft | 479 kts | 172° |
| 2026-04-25 01:25 | 36.90951 | -120.50194 | 44898 ft | 476 kts | 172° |
| 2026-04-25 01:26 | 36.84548 | -120.48132 | 44901 ft | 474 kts | 172° |
| 2026-04-25 01:26 | 36.78190 | -120.46090 | 44898 ft | 476 kts | 172° |
| 2026-04-25 01:27 | 36.71762 | -120.44026 | 44908 ft | 478 kts | 172° |
| 2026-04-25 01:27 | 36.65296 | -120.41956 | 44911 ft | 480 kts | 172° |
| 2026-04-25 01:28 | 36.55597 | -120.38853 | 44903 ft | 478 kts | 172° |
| 2026-04-25 01:28 | 36.49172 | -120.36804 | 44900 ft | 475 kts | 172° |
| 2026-04-25 01:29 | 36.42812 | -120.34780 | 44903 ft | 475 kts | 172° |
| 2026-04-25 01:29 | 36.36368 | -120.32732 | 44888 ft | 478 kts | 172° |
| 2026-04-25 01:30 | 36.29912 | -120.30683 | 44907 ft | 480 kts | 173° |
| 2026-04-25 01:30 | 36.23429 | -120.28628 | 44909 ft | 480 kts | 172° |
| 2026-04-25 01:31 | 36.17012 | -120.26598 | 44875 ft | 477 kts | 173° |
| 2026-04-25 01:31 | 36.10595 | -120.24573 | 44885 ft | 475 kts | 173° |
| 2026-04-25 01:32 | 36.04188 | -120.22554 | 44894 ft | 475 kts | 173° |
| 2026-04-25 01:32 | 35.97762 | -120.20532 | 44880 ft | 478 kts | 173° |
| 2026-04-25 01:33 | 35.91300 | -120.18502 | 44906 ft | 480 kts | 173° |
| 2026-04-25 01:33 | 35.84828 | -120.16472 | 44900 ft | 479 kts | 173° |
| 2026-04-25 01:34 | 35.78402 | -120.14457 | 44832 ft | 470 kts | 173° |
| 2026-04-25 01:34 | 35.75232 | -120.13467 | 44299 ft | 469 kts | 173° |
| 2026-04-25 01:34 | 35.72109 | -120.12493 | 43791 ft | 468 kts | 173° |
| 2026-04-25 01:35 | 35.68926 | -120.11454 | 43254 ft | 469 kts | 170° |
| 2026-04-25 01:35 | 35.65892 | -120.10001 | 42744 ft | 477 kts | 162° |
| 2026-04-25 01:35 | 35.62942 | -120.08022 | 42208 ft | 486 kts | 156° |
| 2026-04-25 01:35 | 35.60057 | -120.05827 | 41665 ft | 490 kts | 156° |
| 2026-04-25 01:36 | 35.57142 | -120.03629 | 41095 ft | 492 kts | 156° |
| 2026-04-25 01:36 | 35.54209 | -120.01429 | 40554 ft | 495 kts | 156° |
| 2026-04-25 01:36 | 35.51271 | -119.99219 | 40003 ft | 496 kts | 156° |
| 2026-04-25 01:36 | 35.48334 | -119.97002 | 39450 ft | 495 kts | 157° |
| 2026-04-25 01:37 | 35.46392 | -119.95538 | 39081 ft | 494 kts | 157° |
| 2026-04-25 01:37 | 35.43461 | -119.93341 | 38504 ft | 493 kts | 158° |
| 2026-04-25 01:37 | 35.40539 | -119.91152 | 37912 ft | 491 kts | 157° |
| 2026-04-25 01:37 | 35.37636 | -119.88970 | 37355 ft | 489 kts | 158° |
| 2026-04-25 01:38 | 35.34731 | -119.86797 | 36815 ft | 489 kts | 158° |
| 2026-04-25 01:38 | 35.31815 | -119.84620 | 36266 ft | 491 kts | 158° |
| 2026-04-25 01:38 | 35.28907 | -119.82401 | 35709 ft | 496 kts | 155° |
| 2026-04-25 01:38 | 35.26115 | -119.79833 | 35144 ft | 504 kts | 151° |
| 2026-04-25 01:39 | 35.23340 | -119.77214 | 34581 ft | 503 kts | 152° |
| 2026-04-25 01:39 | 35.20563 | -119.74630 | 34009 ft | 499 kts | 153° |
| 2026-04-25 01:39 | 35.17804 | -119.72069 | 33413 ft | 496 kts | 152° |
| 2026-04-25 01:39 | 35.15090 | -119.69538 | 32854 ft | 500 kts | 152° |
| 2026-04-25 01:40 | 35.12303 | -119.66938 | 32285 ft | 507 kts | 152° |
| 2026-04-25 01:40 | 35.09484 | -119.64310 | 31716 ft | 511 kts | 151° |
| 2026-04-25 01:40 | 35.06649 | -119.61668 | 31141 ft | 513 kts | 150° |
| 2026-04-25 01:40 | 35.03803 | -119.59022 | 30537 ft | 514 kts | 150° |
| 2026-04-25 01:41 | 35.00958 | -119.56381 | 29980 ft | 515 kts | 150° |
| 2026-04-25 01:41 | 34.98102 | -119.53730 | 29354 ft | 516 kts | 149° |
| 2026-04-25 01:41 | 34.95242 | -119.51076 | 28783 ft | 518 kts | 149° |
| 2026-04-25 01:41 | 34.92361 | -119.48407 | 28191 ft | 522 kts | 149° |
| 2026-04-25 01:42 | 34.89489 | -119.45759 | 27602 ft | 509 kts | 150° |
| 2026-04-25 01:42 | 34.86697 | -119.43259 | 27040 ft | 485 kts | 151° |
| 2026-04-25 01:42 | 34.84028 | -119.40914 | 26495 ft | 463 kts | 151° |
| 2026-04-25 01:42 | 34.81478 | -119.38644 | 25972 ft | 446 kts | 151° |
| 2026-04-25 01:43 | 34.79014 | -119.36425 | 25466 ft | 437 kts | 151° |
| 2026-04-25 01:43 | 34.76572 | -119.34244 | 24984 ft | 436 kts | 151° |
| 2026-04-25 01:43 | 34.74100 | -119.32058 | 24492 ft | 441 kts | 151° |
| 2026-04-25 01:43 | 34.71610 | -119.29871 | 24009 ft | 441 kts | 151° |
| 2026-04-25 01:44 | 34.69122 | -119.27707 | 23513 ft | 438 kts | 151° |
| 2026-04-25 01:44 | 34.66691 | -119.25590 | 22987 ft | 432 kts | 151° |
| 2026-04-25 01:44 | 34.64267 | -119.23472 | 22501 ft | 427 kts | 151° |
| 2026-04-25 01:44 | 34.61862 | -119.21385 | 22018 ft | 422 kts | 152° |
| 2026-04-25 01:45 | 34.59472 | -119.19342 | 21548 ft | 419 kts | 152° |
| 2026-04-25 01:45 | 34.57101 | -119.17312 | 21087 ft | 416 kts | 151° |
| 2026-04-25 01:45 | 34.54755 | -119.15263 | 20618 ft | 414 kts | 150° |
| 2026-04-25 01:45 | 34.52440 | -119.13196 | 20155 ft | 412 kts | 149° |
| 2026-04-25 01:46 | 34.50136 | -119.11130 | 19695 ft | 409 kts | 150° |
| 2026-04-25 01:46 | 34.47852 | -119.09113 | 19237 ft | 402 kts | 150° |
| 2026-04-25 01:46 | 34.45601 | -119.07138 | 18795 ft | 397 kts | 150° |
| 2026-04-25 01:46 | 34.43379 | -119.05193 | 18356 ft | 392 kts | 150° |
| 2026-04-25 01:47 | 34.41198 | -119.03285 | 17886 ft | 390 kts | 150° |
| 2026-04-25 01:47 | 34.39002 | -119.01388 | 17451 ft | 386 kts | 150° |
| 2026-04-25 01:47 | 34.36830 | -118.99510 | 17023 ft | 382 kts | 149° |
| 2026-04-25 01:47 | 34.34667 | -118.97640 | 16602 ft | 380 kts | 149° |
| 2026-04-25 01:48 | 34.32558 | -118.95725 | 16201 ft | 378 kts | 147° |
| 2026-04-25 01:48 | 34.30459 | -118.93820 | 15802 ft | 375 kts | 148° |
| 2026-04-25 01:48 | 34.28370 | -118.91945 | 15389 ft | 373 kts | 148° |
| 2026-04-25 01:48 | 34.26322 | -118.90095 | 14976 ft | 370 kts | 147° |
| 2026-04-25 01:49 | 34.24260 | -118.88212 | 14551 ft | 360 kts | 147° |
| 2026-04-25 01:49 | 34.22337 | -118.86432 | 14160 ft | 346 kts | 147° |
| 2026-04-25 01:49 | 34.20459 | -118.84697 | 13778 ft | 334 kts | 147° |
| 2026-04-25 01:49 | 34.18638 | -118.83031 | 13385 ft | 323 kts | 147° |
| 2026-04-25 01:50 | 34.16878 | -118.81419 | 13027 ft | 314 kts | 147° |
| 2026-04-25 01:50 | 34.15224 | -118.79707 | 12671 ft | 312 kts | 141° |
| 2026-04-25 01:50 | 34.13615 | -118.77938 | 12326 ft | 314 kts | 141° |
| 2026-04-25 01:50 | 34.11991 | -118.76161 | 11968 ft | 315 kts | 141° |
| 2026-04-25 01:51 | 34.10359 | -118.74390 | 11629 ft | 316 kts | 141° |
| 2026-04-25 01:51 | 34.08733 | -118.72632 | 11276 ft | 311 kts | 141° |
| 2026-04-25 01:51 | 34.07129 | -118.70885 | 10936 ft | 308 kts | 141° |
| 2026-04-25 01:51 | 34.05540 | -118.69169 | 10629 ft | 306 kts | 141° |
| 2026-04-25 01:52 | 34.04152 | -118.67311 | 10277 ft | 300 kts | 127° |
| 2026-04-25 01:52 | 34.03169 | -118.65130 | 9950 ft | 293 kts | 113° |
| 2026-04-25 01:52 | 34.02629 | -118.62786 | 9613 ft | 288 kts | 100° |
| 2026-04-25 01:52 | 34.02408 | -118.60400 | 9293 ft | 286 kts | 97° |
| 2026-04-25 01:53 | 34.02184 | -118.58019 | 8976 ft | 286 kts | 97° |
| 2026-04-25 01:53 | 34.01953 | -118.55637 | 8659 ft | 285 kts | 97° |
| 2026-04-25 01:53 | 34.01732 | -118.53299 | 8344 ft | 277 kts | 97° |
| 2026-04-25 01:53 | 34.01519 | -118.51012 | 8031 ft | 271 kts | 97° |
| 2026-04-25 01:54 | 34.01309 | -118.48781 | 7737 ft | 265 kts | 97° |
| 2026-04-25 01:54 | 34.01106 | -118.46590 | 7447 ft | 261 kts | 96° |
| 2026-04-25 01:54 | 34.01229 | -118.44431 | 7150 ft | 257 kts | 79° |
| 2026-04-25 01:54 | 34.01611 | -118.42325 | 6786 ft | 256 kts | 79° |
| 2026-04-25 01:55 | 34.01956 | -118.40299 | 6419 ft | 247 kts | 79° |
| 2026-04-25 01:55 | 34.02299 | -118.38270 | 6120 ft | 246 kts | 79° |
| 2026-04-25 01:55 | 34.02644 | -118.36275 | 6004 ft | 237 kts | 79° |
| 2026-04-25 01:55 | 34.02874 | -118.34360 | 5855 ft | 236 kts | 85° |
| 2026-04-25 01:56 | 34.03066 | -118.32375 | 5540 ft | 239 kts | 84° |
| 2026-04-25 01:56 | 34.03273 | -118.30389 | 5243 ft | 238 kts | 84° |
| 2026-04-25 01:56 | 34.03475 | -118.28415 | 4950 ft | 236 kts | 84° |
| 2026-04-25 01:56 | 34.03673 | -118.26453 | 4648 ft | 235 kts | 84° |
| 2026-04-25 01:57 | 34.04067 | -118.22573 | 4038 ft | 232 kts | 84° |
| 2026-04-25 01:57 | 34.04262 | -118.20644 | 3733 ft | 231 kts | 84° |
| 2026-04-25 01:57 | 34.04424 | -118.18739 | 3586 ft | 222 kts | 92° |
| 2026-04-25 01:58 | 34.03928 | -118.17049 | 3586 ft | 215 kts | 130° |
| 2026-04-25 01:58 | 34.02680 | -118.16108 | 3592 ft | 215 kts | 168° |
| 2026-04-25 01:58 | 34.01194 | -118.16149 | 3606 ft | 215 kts | 189° |
| 2026-04-25 01:58 | 33.99736 | -118.16593 | 3583 ft | 217 kts | 204° |
| 2026-04-25 01:59 | 33.98481 | -118.17568 | 3458 ft | 223 kts | 223° |
| 2026-04-25 01:59 | 33.97470 | -118.18992 | 3145 ft | 225 kts | 231° |
| 2026-04-25 01:59 | 33.96519 | -118.20479 | 2917 ft | 220 kts | 232° |
| 2026-04-25 01:59 | 33.95689 | -118.22013 | 2677 ft | 218 kts | 240° |
| 2026-04-25 02:00 | 33.95192 | -118.23701 | 2596 ft | 209 kts | 255° |
| 2026-04-25 02:00 | 33.95008 | -118.25399 | 2587 ft | 200 kts | 262° |
| 2026-04-25 02:00 | 33.94882 | -118.27056 | 2413 ft | 199 kts | 261° |
| 2026-04-25 02:00 | 33.94730 | -118.28640 | 1799 ft | 186 kts | 261° |
| 2026-04-25 02:01 | 33.94566 | -118.30195 | 1481 ft | 184 kts | 260° |
| 2026-04-25 02:01 | 33.94410 | -118.31708 | 1213 ft | 172 kts | 262° |
| 2026-04-25 02:01 | 33.94274 | -118.33039 | 1001 ft | 142 kts | 261° |
| 2026-04-25 02:01 | 33.94160 | -118.34155 | 789 ft | 128 kts | 262° |
| 2026-04-25 02:02 | 33.94058 | -118.35134 | 599 ft | 112 kts | 262° |
| 2026-04-25 02:02 | 33.93965 | -118.36051 | 463 ft | 113 kts | 265° |
| 2026-04-25 02:02 | 33.93877 | -118.37010 | 395 ft | 112 kts | 265° |
| 2026-04-25 02:02 | 33.93773 | -118.37938 | 235 ft | 113 kts | 264° |
| 2026-04-25 02:03 | 33.93678 | -118.38864 | 125 ft | 103 kts | 264° |
| 2026-04-25 02:03 | 33.93609 | -118.39553 | 120 ft | 64 kts | 263° |
| 2026-04-25 02:03 | 33.93567 | -118.39951 | 120 ft | 34 kts | 263° |
| 2026-04-25 02:03 | 33.93504 | -118.40170 | 118 ft | 18 kts | 237° |
| 2026-04-25 02:04 | 33.93450 | -118.40197 | 118 ft | 9 kts | 159° |
| 2026-04-25 02:04 | 33.93442 | -118.40192 | 120 ft | 0 kts | 148° |
| 2026-04-25 02:04 | 33.93427 | -118.40166 | 119 ft | 9 kts | 108° |
| 2026-04-25 02:04 | 33.93434 | -118.40053 | 117 ft | 19 kts | 96° |
| 2026-04-25 02:05 | 33.93452 | -118.39855 | 118 ft | 29 kts | 82° |
| 2026-04-25 02:05 | 33.93477 | -118.39597 | 120 ft | 19 kts | 83° |
| 2026-04-25 02:05 | 33.93490 | -118.39470 | 120 ft | 16 kts | 83° |
| 2026-04-25 02:05 | 33.93495 | -118.39413 | 118 ft | 3 kts | 88° |
| 2026-04-25 02:06 | 33.93485 | -118.39392 | 120 ft | 8 kts | 146° |
| 2026-04-25 02:06 | 33.93466 | -118.39373 | 119 ft | 0 kts | 62° |
| 2026-04-25 02:06 | 33.93469 | -118.39370 | 119 ft | 0 kts | 41° |